createdAt,value
2018-11-23T00:00:27.138Z,44.53
2018-11-23T00:02:56.038Z,39.90
2018-11-23T00:05:24.280Z,45.27
2018-11-23T00:07:52.886Z,46.47
2018-11-23T00:10:22.369Z,49.60
2018-11-23T00:12:50.557Z,56.43
2018-11-23T00:15:19.887Z,53.23
2018-11-23T00:17:48.102Z,49.50
2018-11-23T00:20:20.562Z,52.80
2018-11-23T00:22:49.676Z,57.93
2018-11-23T00:25:20.186Z,44.23
2018-11-23T00:27:48.671Z,43.57
2018-11-23T00:30:18.914Z,59.00
2018-11-23T00:32:47.439Z,48.70
2018-11-23T00:35:17.301Z,51.50
2018-11-23T00:37:45.881Z,55.23
2018-11-23T00:40:30.243Z,41.43
2018-11-23T00:42:58.789Z,51.43
2018-11-23T00:45:26.982Z,61.40
2018-11-23T00:47:55.889Z,45.70
2018-11-23T00:50:24.794Z,57.47
2018-11-23T00:52:53.741Z,54.13
2018-11-23T00:55:22.726Z,47.17
2018-11-23T00:57:50.939Z,52.00
2018-11-23T01:00:25.221Z,47.87
2018-11-23T01:02:53.826Z,49.50
2018-11-23T01:05:22.005Z,50.70
2018-11-23T01:07:50.168Z,50.00
2018-11-23T01:10:19.490Z,50.60
2018-11-23T01:12:48.578Z,49.37
2018-11-23T01:15:16.736Z,55.13
2018-11-23T01:17:44.952Z,57.80
2018-11-23T01:20:16.930Z,55.83
2018-11-23T01:22:45.193Z,57.27
2018-11-23T01:25:14.400Z,51.20
2018-11-23T01:27:43.377Z,58.80
2018-11-23T01:30:16.813Z,50.47
2018-11-23T01:32:45.241Z,54.50
2018-11-23T01:35:13.583Z,52.67
2018-11-23T01:37:42.085Z,50.03
2018-11-23T01:40:12.325Z,58.10
2018-11-23T01:42:41.198Z,46.67
2018-11-23T01:45:09.946Z,50.80
2018-11-23T01:47:38.088Z,61.23
2018-11-23T01:50:11.215Z,61.43
2018-11-23T01:52:39.449Z,52.63
2018-11-23T01:55:08.835Z,64.17
2018-11-23T01:57:37.512Z,47.13
2018-11-23T02:00:06.180Z,52.87
2018-11-23T02:02:34.394Z,49.80
2018-11-23T02:05:02.570Z,52.40
2018-11-23T02:07:30.719Z,52.83
2018-11-23T02:09:58.890Z,65.40
2018-11-23T02:12:27.068Z,52.40
2018-11-23T02:14:55.285Z,51.77
2018-11-23T02:17:24.177Z,51.57
2018-11-23T02:19:54.312Z,47.47
2018-11-23T02:22:22.466Z,53.07
2018-11-23T02:24:50.861Z,49.20
2018-11-23T02:27:19.061Z,58.57
2018-11-23T02:29:47.300Z,46.63
2018-11-23T02:32:15.489Z,57.10
2018-11-23T02:34:43.649Z,52.13
2018-11-23T02:37:11.838Z,57.33
2018-11-23T02:39:40.437Z,56.07
2018-11-23T02:42:08.601Z,54.13
2018-11-23T02:44:37.073Z,55.50
2018-11-23T02:47:05.457Z,49.58
2018-11-23T02:49:33.679Z,68.33
2018-11-23T02:52:01.852Z,57.17
2018-11-23T02:54:30.009Z,59.37
2018-11-23T02:56:58.176Z,65.70
2018-11-23T02:59:26.330Z,53.93
2018-11-23T03:01:54.504Z,57.30
2018-11-23T03:04:22.702Z,52.47
2018-11-23T03:06:50.886Z,50.97
2018-11-23T03:09:19.067Z,51.20
2018-11-23T03:11:47.286Z,58.37
2018-11-23T03:14:15.467Z,57.33
2018-11-23T03:16:43.642Z,51.40
2018-11-23T03:19:11.829Z,58.43
2018-11-23T03:21:40.012Z,56.00
2018-11-23T03:24:08.198Z,55.00
2018-11-23T03:26:36.403Z,58.00
2018-11-23T03:29:04.901Z,55.63
2018-11-23T03:31:33.061Z,53.70
2018-11-23T03:34:01.260Z,63.53
2018-11-23T03:36:29.434Z,55.67
2018-11-23T03:38:57.622Z,58.33
2018-11-23T03:41:25.815Z,51.23
2018-11-23T03:43:53.988Z,54.07
2018-11-23T03:46:22.160Z,58.60
2018-11-23T03:48:50.399Z,55.90
2018-11-23T03:51:18.584Z,53.80
2018-11-23T03:53:46.749Z,51.90
2018-11-23T03:56:14.946Z,62.17
2018-11-23T03:58:43.111Z,55.23
2018-11-23T04:01:11.316Z,55.53
2018-11-23T04:03:39.482Z,49.13
2018-11-23T04:06:07.744Z,52.43
2018-11-23T04:08:35.919Z,52.80
2018-11-23T04:11:04.081Z,50.40
2018-11-23T04:13:32.266Z,53.90
2018-11-23T04:16:00.456Z,47.60
2018-11-23T04:18:28.605Z,63.03
2018-11-23T04:21:03.580Z,46.97
2018-11-23T04:23:32.860Z,47.27
2018-11-23T04:26:01.155Z,50.33
2018-11-23T04:28:29.324Z,60.87
2018-11-23T04:30:57.494Z,56.70
2018-11-23T04:33:26.272Z,55.83
2018-11-23T04:35:54.698Z,53.77
2018-11-23T04:38:22.862Z,59.07
2018-11-23T04:40:51.081Z,59.30
2018-11-23T04:43:19.326Z,54.10
2018-11-23T04:45:47.491Z,51.53
2018-11-23T04:48:15.669Z,62.60
2018-11-23T04:50:43.894Z,52.00
2018-11-23T04:53:12.099Z,56.73
2018-11-23T04:55:40.322Z,57.63
2018-11-23T04:58:08.555Z,57.27
2018-11-23T05:00:36.751Z,50.23
2018-11-23T05:03:04.942Z,43.27
2018-11-23T05:05:33.132Z,49.43
2018-11-23T05:08:01.291Z,48.50
2018-11-23T05:10:29.462Z,47.50
2018-11-23T05:12:57.642Z,51.70
2018-11-23T05:15:25.827Z,52.43
2018-11-23T05:17:54.022Z,57.33
2018-11-23T05:20:22.223Z,58.40
2018-11-23T05:22:50.375Z,55.80
2018-11-23T05:25:19.390Z,70.03
2018-11-23T05:27:47.539Z,52.00
2018-11-23T05:30:17.864Z,43.97
2018-11-23T05:32:46.080Z,51.03
2018-11-23T05:35:15.227Z,50.80
2018-11-23T05:37:43.406Z,50.77
2018-11-23T05:40:13.640Z,56.67
2018-11-23T05:42:41.799Z,56.23
2018-11-23T05:45:12.513Z,50.43
2018-11-23T05:47:40.723Z,63.70
2018-11-23T05:50:13.080Z,52.83
2018-11-23T05:52:42.430Z,52.37
2018-11-23T05:55:11.081Z,54.93
2018-11-23T05:57:39.354Z,63.57
2018-11-23T06:00:10.234Z,56.80
2018-11-23T06:02:38.541Z,46.87
2018-11-23T06:05:07.280Z,62.40
2018-11-23T06:07:35.506Z,52.57
2018-11-23T06:10:04.139Z,47.13
2018-11-23T06:12:32.346Z,50.17
2018-11-23T06:15:00.500Z,59.00
2018-11-23T06:17:28.697Z,52.00
2018-11-23T06:19:56.869Z,52.13
2018-11-23T06:22:25.082Z,57.43
2018-11-23T06:24:53.276Z,51.87
2018-11-23T06:27:21.456Z,56.80
2018-11-23T06:29:49.648Z,64.37
2018-11-23T06:32:29.186Z,58.23
2018-11-23T06:34:57.373Z,59.20
2018-11-23T06:37:25.587Z,60.20
2018-11-23T06:39:53.897Z,65.93
2018-11-23T06:42:22.033Z,64.80
2018-11-23T06:44:50.190Z,53.10
2018-11-23T06:47:18.387Z,62.90
2018-11-23T06:49:46.614Z,68.87
2018-11-23T06:52:14.878Z,56.80
2018-11-23T06:54:43.142Z,65.40
2018-11-23T06:57:11.321Z,61.00
2018-11-23T06:59:39.482Z,52.70
2018-11-23T07:02:07.633Z,60.20
2018-11-23T07:04:36.038Z,44.43
2018-11-23T07:07:04.381Z,53.83
2018-11-23T07:09:32.625Z,58.20
2018-11-23T07:12:00.922Z,60.93
2018-11-23T07:14:29.092Z,57.30
2018-11-23T07:16:57.426Z,55.58
2018-11-23T07:19:26.086Z,54.50
2018-11-23T07:21:54.241Z,55.90
2018-11-23T07:24:22.459Z,54.43
2018-11-23T07:26:50.654Z,66.27
2018-11-23T07:29:18.848Z,61.47
2018-11-23T07:31:47.056Z,64.33
2018-11-23T07:34:15.325Z,53.90
2018-11-23T07:36:43.789Z,63.50
2018-11-23T07:39:23.720Z,62.07
2018-11-23T07:45:19.643Z,47.97
2018-11-23T07:47:47.860Z,54.83
2018-11-23T07:50:15.998Z,61.57
2018-11-23T07:52:44.263Z,58.23
2018-11-23T07:55:13.028Z,53.67
2018-11-23T07:57:41.657Z,60.73
2018-11-23T08:00:12.647Z,61.13
2018-11-23T08:02:42.145Z,53.83
2018-11-23T08:05:11.942Z,65.73
2018-11-23T08:07:40.661Z,52.57
2018-11-23T08:10:10.373Z,73.60
2018-11-23T08:12:39.175Z,51.77
2018-11-23T08:15:11.236Z,59.70
2018-11-23T08:17:40.353Z,66.90
2018-11-23T08:20:10.045Z,57.17
2018-11-23T08:22:38.499Z,47.50
2018-11-23T08:25:07.981Z,48.87
2018-11-23T08:27:36.342Z,50.93
2018-11-23T08:30:07.566Z,54.87
2018-11-23T08:32:36.118Z,51.63
2018-11-23T08:35:04.238Z,58.63
2018-11-23T08:37:32.418Z,63.10
2018-11-23T08:40:00.627Z,54.13
2018-11-23T08:42:28.903Z,58.03
2018-11-23T08:44:58.841Z,54.60
2018-11-23T08:47:27.064Z,54.53
2018-11-23T08:49:55.065Z,52.97
2018-11-23T08:52:23.422Z,60.47
2018-11-23T08:54:52.245Z,62.43
2018-11-23T08:57:20.403Z,55.00
2018-11-23T08:59:48.715Z,58.70
2018-11-23T09:02:16.871Z,53.97
2018-11-23T09:04:45.098Z,55.40
2018-11-23T09:07:13.368Z,62.83
2018-11-23T09:09:41.598Z,57.23
2018-11-23T09:12:09.888Z,48.60
2018-11-23T09:14:38.389Z,57.90
2018-11-23T09:17:06.609Z,58.73
2018-11-23T09:19:34.774Z,61.77
2018-11-23T09:22:03.101Z,55.87
2018-11-23T09:24:31.289Z,62.13
2018-11-23T09:26:59.780Z,51.08
2018-11-23T09:29:28.147Z,51.43
2018-11-23T09:31:56.737Z,52.83
2018-11-23T09:34:24.912Z,58.57
2018-11-23T09:36:53.378Z,56.60
2018-11-23T09:39:21.585Z,56.53
2018-11-23T09:41:49.761Z,50.20
2018-11-23T09:44:17.899Z,48.50
2018-11-23T09:46:46.382Z,46.87
2018-11-23T09:49:14.709Z,50.83
2018-11-23T09:51:42.874Z,45.17
2018-11-23T09:54:11.062Z,55.53
2018-11-23T09:56:40.349Z,59.73
2018-11-23T09:59:08.763Z,56.07
2018-11-23T10:01:36.947Z,55.03
2018-11-23T10:04:05.130Z,62.23
2018-11-23T10:06:33.509Z,50.30
2018-11-23T10:09:01.976Z,53.77
2018-11-23T10:11:30.230Z,52.63
2018-11-23T10:13:58.641Z,55.80
2018-11-23T10:16:26.813Z,58.73
2018-11-23T10:18:55.414Z,54.87
2018-11-23T10:21:24.584Z,60.10
2018-11-23T10:23:52.859Z,58.10
2018-11-23T10:26:21.184Z,58.67
2018-11-23T10:28:49.776Z,49.18
2018-11-23T10:31:17.994Z,51.93
2018-11-23T10:33:46.423Z,56.70
2018-11-23T10:36:20.900Z,49.50
2018-11-23T10:38:49.205Z,51.50
2018-11-23T10:41:18.015Z,52.83
2018-11-23T10:43:46.449Z,52.63
2018-11-23T10:46:14.651Z,52.97
2018-11-23T10:48:42.847Z,50.10
2018-11-23T10:51:11.226Z,50.77
2018-11-23T10:53:39.630Z,47.50
2018-11-23T10:56:07.882Z,43.67
2018-11-23T10:58:36.533Z,50.53
2018-11-23T11:01:10.197Z,48.63
2018-11-23T11:04:46.173Z,60.40
2018-11-23T11:07:14.695Z,49.57
2018-11-23T11:09:42.891Z,50.60
2018-11-23T11:12:11.189Z,41.13
2018-11-23T11:14:39.612Z,55.13
2018-11-23T11:17:07.646Z,52.17
2018-11-23T11:19:35.971Z,48.67
2018-11-23T11:22:04.545Z,46.23
2018-11-23T11:24:33.918Z,49.83
2018-11-23T11:27:02.126Z,47.33
2018-11-23T11:29:30.421Z,58.83
2018-11-23T11:31:58.647Z,47.83
2018-11-23T11:34:26.878Z,37.07
2018-11-23T11:36:55.178Z,41.40
2018-11-23T11:39:24.126Z,56.97
2018-11-23T11:41:52.559Z,45.80
2018-11-23T11:44:20.777Z,45.33
2018-11-23T11:46:49.013Z,44.20
2018-11-23T11:49:17.212Z,37.70
2018-11-23T11:51:45.577Z,47.23
2018-11-23T11:54:13.804Z,54.50
2018-11-23T11:56:42.195Z,47.30
2018-11-23T11:59:10.718Z,44.57
2018-11-23T12:01:39.216Z,34.87
2018-11-23T12:04:07.440Z,47.63
2018-11-23T12:06:35.595Z,44.20
2018-11-23T12:09:06.026Z,50.60
2018-11-23T12:11:34.199Z,48.97
2018-11-23T12:14:02.517Z,43.00
2018-11-23T12:16:30.710Z,45.17
2018-11-23T12:18:58.918Z,43.93
2018-11-23T12:21:27.118Z,66.27
2018-11-23T12:23:55.334Z,47.93
2018-11-23T12:26:23.525Z,39.87
2018-11-23T12:28:51.738Z,39.40
2018-11-23T12:31:19.929Z,53.70
2018-11-23T12:33:48.336Z,45.83
2018-11-23T12:36:16.501Z,43.63
2018-11-23T12:38:44.676Z,64.90
2018-11-23T12:41:12.858Z,52.03
2018-11-23T12:43:41.004Z,41.53
2018-11-23T12:46:09.289Z,56.87
2018-11-23T12:48:37.460Z,45.80
2018-11-23T12:51:07.290Z,42.57
2018-11-23T12:53:35.453Z,46.17
2018-11-23T12:56:03.654Z,39.47
2018-11-23T12:58:31.896Z,47.37
2018-11-23T13:01:00.116Z,39.48
2018-11-23T13:03:28.268Z,44.67
2018-11-23T13:05:56.450Z,43.10
2018-11-23T13:08:24.595Z,41.30
2018-11-23T13:10:52.754Z,41.17
2018-11-23T13:13:20.979Z,49.60
2018-11-23T13:15:49.257Z,42.40
2018-11-23T13:18:17.533Z,38.50
2018-11-23T13:20:45.710Z,43.63
2018-11-23T13:23:13.958Z,55.47
2018-11-23T13:25:42.143Z,46.90
2018-11-23T13:28:10.514Z,38.20
2018-11-23T13:30:38.684Z,39.60
2018-11-23T13:33:06.973Z,43.60
2018-11-23T13:35:35.210Z,40.17
2018-11-23T13:38:03.381Z,38.90
2018-11-23T13:40:31.980Z,43.27
2018-11-23T13:43:00.981Z,36.23
2018-11-23T13:45:30.659Z,43.50
2018-11-23T13:47:59.261Z,43.57
2018-11-23T13:50:27.929Z,35.90
2018-11-23T13:52:57.730Z,35.77
2018-11-23T13:55:25.973Z,48.60
2018-11-23T13:57:54.309Z,39.23
2018-11-23T14:00:23.993Z,39.53
2018-11-23T14:02:52.183Z,35.27
2018-11-23T14:05:21.713Z,44.70
2018-11-23T14:07:54.072Z,38.00
2018-11-23T14:10:23.481Z,35.20
2018-11-23T14:12:51.659Z,33.17
2018-11-23T14:15:22.016Z,35.47
2018-11-23T14:17:51.038Z,40.20
2018-11-23T14:20:19.819Z,54.27
2018-11-23T14:22:49.807Z,37.47
2018-11-23T14:25:19.358Z,39.13
2018-11-23T14:27:47.945Z,35.37
2018-11-23T14:30:18.313Z,39.90
2018-11-23T14:32:46.765Z,36.53
2018-11-23T14:35:17.509Z,38.93
2018-11-23T14:37:46.511Z,41.63
2018-11-23T14:40:15.120Z,34.37
2018-11-23T14:42:44.319Z,38.70
2018-11-23T14:45:20.526Z,38.50
2018-11-23T14:47:49.506Z,32.97
2018-11-23T14:50:19.622Z,38.40
2018-11-23T14:52:49.085Z,76.00
2018-11-23T14:55:17.785Z,54.13
2018-11-23T14:57:46.286Z,35.63
2018-11-23T15:00:22.796Z,44.30
2018-11-23T15:02:52.225Z,45.87
2018-11-23T15:05:20.789Z,36.20
2018-11-23T15:07:49.370Z,42.00
2018-11-23T15:10:22.018Z,32.67
2018-11-23T15:12:53.536Z,37.15
2018-11-23T15:15:23.089Z,44.40
2018-11-23T15:17:51.988Z,55.13
2018-11-23T15:20:26.298Z,47.30
2018-11-23T15:22:57.011Z,40.73
2018-11-23T15:25:25.243Z,42.10
2018-11-23T15:27:53.706Z,36.23
2018-11-23T15:30:24.623Z,28.33
2018-11-23T15:32:52.890Z,39.87
2018-11-23T15:35:22.009Z,37.93
2018-11-23T15:37:50.233Z,38.07
2018-11-23T15:40:20.962Z,36.77
2018-11-23T15:42:49.978Z,39.70
2018-11-23T15:45:22.173Z,43.23
2018-11-23T15:47:50.486Z,36.93
2018-11-23T15:50:23.188Z,51.83
2018-11-23T15:52:51.362Z,40.70
2018-11-23T15:55:22.009Z,44.73
2018-11-23T15:57:51.565Z,40.60
2018-11-23T16:00:22.326Z,45.43
2018-11-23T16:02:51.007Z,35.83
2018-11-23T16:05:19.731Z,36.20
2018-11-23T16:07:48.174Z,42.63
2018-11-23T16:10:19.641Z,39.50
2018-11-23T16:12:48.956Z,43.13
2018-11-23T16:15:17.848Z,57.03
2018-11-23T16:17:46.163Z,34.63
2018-11-23T16:20:22.169Z,39.27
2018-11-23T16:22:52.558Z,41.73
2018-11-23T16:25:20.818Z,41.10
2018-11-23T16:27:50.510Z,45.70
2018-11-23T16:30:20.845Z,36.77
2018-11-23T16:32:50.142Z,43.30
2018-11-23T16:35:19.585Z,39.13
2018-11-23T16:37:47.934Z,44.13
2018-11-23T16:40:17.607Z,39.23
2018-11-23T16:42:45.821Z,33.60
2018-11-23T16:45:16.560Z,37.37
2018-11-23T16:47:45.645Z,35.53
2018-11-23T16:50:14.041Z,34.37
2018-11-23T16:52:44.707Z,39.45
2018-11-23T16:55:13.924Z,39.80
2018-11-23T16:57:43.313Z,45.60
2018-11-23T17:00:13.249Z,34.77
2018-11-23T17:02:42.197Z,37.00
2018-11-23T17:05:11.260Z,40.20
2018-11-23T17:07:39.513Z,35.20
2018-11-23T17:10:11.182Z,34.80
2018-11-23T17:12:39.763Z,37.03
2018-11-23T17:15:09.274Z,32.83
2018-11-23T17:17:37.734Z,29.47
2018-11-23T17:20:07.650Z,38.43
2018-11-23T17:22:35.904Z,38.60
2018-11-23T17:25:05.772Z,36.75
2018-11-23T17:27:33.948Z,37.13
2018-11-23T17:30:02.260Z,40.43
2018-11-23T17:32:30.796Z,33.43
2018-11-23T17:34:59.151Z,37.30
2018-11-23T17:37:27.359Z,33.17
2018-11-23T17:39:55.959Z,30.90
2018-11-23T17:42:24.677Z,32.30
2018-11-23T17:44:53.056Z,34.23
2018-11-23T17:47:21.290Z,40.67
2018-11-23T17:49:49.814Z,37.93
2018-11-23T17:52:18.305Z,36.03
2018-11-23T17:54:46.619Z,36.80
2018-11-23T17:57:15.499Z,36.43
2018-11-23T17:59:48.170Z,43.80
2018-11-23T18:02:18.990Z,40.47
2018-11-23T18:04:48.664Z,32.37
2018-11-23T18:07:17.464Z,39.23
2018-11-23T18:09:46.209Z,46.13
2018-11-23T18:12:15.609Z,47.43
2018-11-23T18:14:43.648Z,35.20
2018-11-23T18:17:12.013Z,40.97
2018-11-23T18:19:40.789Z,38.67
2018-11-23T18:22:09.783Z,45.30
2018-11-23T18:24:38.051Z,42.33
2018-11-23T18:27:06.437Z,37.63
2018-11-23T18:29:34.911Z,44.33
2018-11-23T18:32:03.062Z,39.10
2018-11-23T18:34:31.275Z,47.30
2018-11-23T18:36:59.538Z,41.23
2018-11-23T18:39:27.768Z,38.53
2018-11-23T18:41:55.992Z,35.83
2018-11-23T18:44:24.229Z,37.03
2018-11-23T18:46:52.487Z,40.90
2018-11-23T18:49:20.649Z,37.43
2018-11-23T18:51:48.956Z,35.73
2018-11-23T18:54:17.203Z,49.73
2018-11-23T18:56:45.364Z,40.80
2018-11-23T18:59:14.209Z,39.37
2018-11-23T19:01:42.612Z,39.43
2018-11-23T19:04:10.852Z,48.57
2018-11-23T19:06:39.080Z,39.07
2018-11-23T19:09:09.604Z,31.57
2018-11-23T19:11:37.861Z,34.47
2018-11-23T19:14:06.609Z,41.70
2018-11-23T19:16:34.842Z,41.30
2018-11-23T19:19:03.066Z,39.40
2018-11-23T19:21:31.263Z,44.03
2018-11-23T19:23:59.636Z,33.90
2018-11-23T19:26:27.849Z,37.73
2018-11-23T19:28:56.112Z,30.73
2018-11-23T19:31:24.877Z,40.67
2018-11-23T19:33:59.088Z,45.73
2018-11-23T19:36:21.729Z,37.23
2018-11-23T19:38:50.541Z,33.90
2018-11-23T19:41:18.679Z,42.63
2018-11-23T19:43:47.033Z,33.30
2018-11-23T19:46:15.270Z,31.47
2018-11-23T19:48:43.500Z,35.23
2018-11-23T19:51:11.714Z,36.43
2018-11-23T19:53:41.135Z,37.30
2018-11-23T19:56:09.360Z,44.93
2018-11-23T19:58:37.609Z,43.53
2018-11-23T20:01:06.218Z,45.03
2018-11-23T20:03:34.490Z,31.43
2018-11-23T20:06:02.741Z,34.23
2018-11-23T20:08:31.146Z,39.23
2018-11-23T20:10:59.359Z,41.77
2018-11-23T20:13:27.549Z,38.53
2018-11-23T20:15:55.826Z,44.30
2018-11-23T20:18:24.037Z,44.23
2018-11-23T20:20:52.383Z,39.83
2018-11-23T20:23:20.557Z,45.27
2018-11-23T20:28:23.492Z,42.07
2018-11-23T20:30:51.788Z,38.50
2018-11-23T20:33:20.035Z,31.70
2018-11-23T20:35:48.207Z,34.27
2018-11-23T20:38:16.398Z,41.33
2018-11-23T20:40:44.808Z,44.30
2018-11-23T20:43:13.050Z,35.50
2018-11-23T20:45:41.290Z,40.87
2018-11-23T20:48:09.543Z,36.23
2018-11-23T20:50:37.750Z,38.80
2018-11-23T20:53:05.940Z,38.70
2018-11-23T20:55:34.175Z,36.67
2018-11-23T20:58:02.413Z,41.23
2018-11-23T21:00:30.601Z,38.03
2018-11-23T21:02:59.221Z,39.77
2018-11-23T21:05:27.423Z,61.63
2018-11-23T21:07:55.623Z,40.20
2018-11-23T21:10:24.978Z,38.30
2018-11-23T21:12:53.712Z,33.27
2018-11-23T21:15:27.073Z,36.00
2018-11-23T21:17:55.708Z,47.30
2018-11-23T21:20:23.893Z,45.63
2018-11-23T21:22:52.120Z,36.47
2018-11-23T21:25:20.366Z,35.83
2018-11-23T21:27:48.872Z,40.10
2018-11-23T21:30:18.280Z,37.60
2018-11-23T21:32:46.477Z,43.53
2018-11-23T21:35:14.635Z,32.93
2018-11-23T21:37:42.854Z,49.17
2018-11-23T21:40:11.853Z,31.27
2018-11-23T21:42:40.098Z,37.53
2018-11-23T21:45:13.586Z,41.70
2018-11-23T21:47:41.839Z,32.00
2018-11-23T21:50:15.181Z,55.67
2018-11-23T21:52:43.869Z,44.27
2018-11-23T21:55:16.772Z,45.70
2018-11-23T21:57:45.302Z,41.57
2018-11-23T22:00:14.424Z,36.93
2018-11-23T22:02:43.147Z,33.27
2018-11-23T22:05:11.840Z,33.53
2018-11-23T22:07:40.245Z,42.83
2018-11-23T22:10:13.536Z,39.20
2018-11-23T22:12:41.776Z,32.17
2018-11-23T22:15:12.440Z,37.30
2018-11-23T22:17:40.961Z,36.03
2018-11-23T22:20:12.661Z,43.60
2018-11-23T22:22:40.868Z,35.50
2018-11-23T22:25:12.282Z,47.53
2018-11-23T22:27:40.629Z,39.77
2018-11-23T22:30:14.228Z,44.37
2018-11-23T22:32:42.469Z,33.53
2018-11-23T22:35:11.437Z,37.53
2018-11-23T22:37:39.688Z,42.00
2018-11-23T22:40:11.805Z,40.67
2018-11-23T22:42:40.254Z,40.30
2018-11-23T22:45:09.820Z,45.00
2018-11-23T22:47:38.013Z,33.83
2018-11-23T22:50:10.074Z,38.60
2018-11-23T22:52:38.282Z,40.53
2018-11-23T22:55:08.107Z,30.40
2018-11-23T22:57:36.319Z,35.63
2018-11-23T23:00:09.635Z,41.10
2018-11-23T23:02:37.855Z,44.17
2018-11-23T23:05:06.789Z,38.07
2018-11-23T23:07:35.010Z,43.17
2018-11-23T23:10:03.268Z,42.40
2018-11-23T23:12:31.427Z,44.00
2018-11-23T23:14:59.641Z,42.23
2018-11-23T23:17:27.826Z,37.83
2018-11-23T23:19:56.003Z,39.03
2018-11-23T23:22:24.194Z,42.40
2018-11-23T23:24:52.350Z,39.15
2018-11-23T23:27:20.534Z,30.87
2018-11-23T23:29:55.254Z,38.63
2018-11-23T23:32:23.417Z,41.53
2018-11-23T23:34:51.575Z,41.13
2018-11-23T23:37:19.783Z,36.43
2018-11-23T23:39:47.957Z,38.37
2018-11-23T23:42:16.147Z,32.67
2018-11-23T23:44:44.878Z,35.13
2018-11-23T23:47:13.071Z,33.10
2018-11-23T23:49:41.255Z,40.93
2018-11-23T23:52:09.437Z,42.50
2018-11-23T23:54:37.614Z,38.67
2018-11-23T23:57:05.839Z,34.18
2018-11-23T23:59:34.006Z,36.03
